createdAt,value
2022-11-20T00:01:25.603Z,100.00
2022-11-20T00:03:53.988Z,100.00
2022-11-20T00:06:21.672Z,100.00
2022-11-20T00:08:49.139Z,100.00
2022-11-20T00:11:19.097Z,100.00
2022-11-20T00:13:46.745Z,100.00
2022-11-20T00:16:15.667Z,100.00
2022-11-20T00:18:43.387Z,100.00
2022-11-20T00:21:22.287Z,100.00
2022-11-20T00:23:50.350Z,100.00
2022-11-20T00:26:19.315Z,100.00
2022-11-20T00:29:10.575Z,100.00
2022-11-20T00:31:37.427Z,100.00
2022-11-20T00:34:04.026Z,100.00
2022-11-20T00:36:34.359Z,100.00
2022-11-20T00:39:01.230Z,100.00
2022-11-20T00:41:29.755Z,100.00
2022-11-20T00:43:56.932Z,100.00
2022-11-20T00:46:26.003Z,100.00
2022-11-20T00:48:52.708Z,100.00
2022-11-20T00:51:22.411Z,100.00
2022-11-20T00:53:49.553Z,100.00
2022-11-20T00:56:19.103Z,100.00
2022-11-20T00:58:48.521Z,100.00
2022-11-20T01:01:18.174Z,100.00
2022-11-20T01:03:47.635Z,100.00
2022-11-20T01:06:20.024Z,100.00
2022-11-20T01:08:47.408Z,100.00
2022-11-20T01:11:19.468Z,100.00
2022-11-20T01:13:47.420Z,100.00
2022-11-20T01:16:28.645Z,100.00
2022-11-20T01:18:58.247Z,100.00
2022-11-20T01:21:27.941Z,100.00
2022-11-20T01:23:55.055Z,100.00
2022-11-20T01:26:25.095Z,100.00
2022-11-20T01:28:52.397Z,100.00
2022-11-20T01:31:20.199Z,100.00
2022-11-20T01:33:48.476Z,100.00
2022-11-20T01:36:16.618Z,100.00
2022-11-20T01:38:44.011Z,100.00
2022-11-20T01:41:33.012Z,100.00
2022-11-20T01:44:01.115Z,100.00
2022-11-20T01:46:28.273Z,100.00
2022-11-20T01:49:05.209Z,100.00
2022-11-20T01:51:31.703Z,100.00
2022-11-20T01:54:03.255Z,100.00
2022-11-20T01:56:32.572Z,100.00
2022-11-20T01:59:02.854Z,100.00
2022-11-20T02:01:29.624Z,100.00
2022-11-20T02:03:57.269Z,100.00
2022-11-20T02:06:30.651Z,100.00
2022-11-20T02:08:57.351Z,100.00
2022-11-20T02:11:24.081Z,100.00
2022-11-20T02:13:51.426Z,100.00
2022-11-20T02:16:35.222Z,100.00
2022-11-20T02:19:02.886Z,100.00
2022-11-20T02:21:29.517Z,100.00
2022-11-20T02:24:15.629Z,100.00
2022-11-20T02:26:53.645Z,100.00
2022-11-20T02:29:29.274Z,100.00
2022-11-20T02:31:57.780Z,100.00
2022-11-20T02:34:24.340Z,100.00
2022-11-20T02:36:53.263Z,100.00
2022-11-20T02:39:22.008Z,100.00
2022-11-20T02:41:48.785Z,100.00
2022-11-20T02:44:15.434Z,100.00
2022-11-20T02:46:42.012Z,100.00
2022-11-20T02:49:08.707Z,100.00
2022-11-20T02:51:35.416Z,100.00
2022-11-20T02:54:02.062Z,100.00
2022-11-20T02:56:29.041Z,100.00
2022-11-20T02:58:55.814Z,100.00
2022-11-20T03:01:22.728Z,100.00
2022-11-20T03:03:49.661Z,100.00
2022-11-20T03:06:19.353Z,100.00
2022-11-20T03:08:45.937Z,100.00
2022-11-20T03:11:12.539Z,100.00
2022-11-20T03:13:39.185Z,100.00
2022-11-20T03:16:15.539Z,100.00
2022-11-20T03:18:42.905Z,100.00
2022-11-20T03:21:11.921Z,100.00
2022-11-20T03:23:39.733Z,100.00
2022-11-20T03:26:10.602Z,100.00
2022-11-20T03:28:38.027Z,100.00
2022-11-20T03:31:10.260Z,100.00
2022-11-20T03:33:37.121Z,100.00
2022-11-20T03:36:09.163Z,100.00
2022-11-20T03:38:35.915Z,100.00
2022-11-20T03:41:04.375Z,100.00
2022-11-20T03:43:31.438Z,100.00
2022-11-20T03:45:58.341Z,100.00
2022-11-20T03:48:25.150Z,100.00
2022-11-20T03:50:52.779Z,100.00
2022-11-20T03:53:19.720Z,100.00
2022-11-20T03:55:51.115Z,100.00
2022-11-20T03:58:19.060Z,100.00
2022-11-20T04:00:45.659Z,100.00
2022-11-20T04:03:12.221Z,100.00
2022-11-20T04:05:38.812Z,100.00
2022-11-20T04:08:05.752Z,100.00
2022-11-20T04:10:32.305Z,100.00
2022-11-20T04:12:58.892Z,100.00
2022-11-20T04:15:25.481Z,100.00
2022-11-20T04:17:52.090Z,100.00
2022-11-20T04:20:18.683Z,100.00
2022-11-20T04:22:45.288Z,100.00
2022-11-20T04:25:11.817Z,100.00
2022-11-20T04:27:38.440Z,100.00
2022-11-20T04:30:05.473Z,100.00
2022-11-20T04:32:32.104Z,100.00
2022-11-20T04:34:58.721Z,100.00
2022-11-20T04:37:25.280Z,100.00
2022-11-20T04:39:51.810Z,100.00
2022-11-20T04:42:30.516Z,100.00
2022-11-20T04:44:57.972Z,100.00
2022-11-20T04:47:24.774Z,100.00
2022-11-20T04:49:51.453Z,100.00
2022-11-20T04:52:18.022Z,100.00
2022-11-20T04:54:44.601Z,100.00
2022-11-20T04:57:14.425Z,100.00
2022-11-20T04:59:41.498Z,100.00
2022-11-20T05:02:08.393Z,100.00
2022-11-20T05:04:34.956Z,100.00
2022-11-20T05:07:01.564Z,100.00
2022-11-20T05:09:28.129Z,100.00
2022-11-20T05:11:54.755Z,100.00
2022-11-20T05:14:21.288Z,100.00
2022-11-20T05:16:47.843Z,100.00
2022-11-20T05:19:14.392Z,100.00
2022-11-20T05:21:40.982Z,100.00
2022-11-20T05:24:08.001Z,100.00
2022-11-20T05:26:34.640Z,100.00
2022-11-20T05:29:01.299Z,100.00
2022-11-20T05:31:28.534Z,100.00
2022-11-20T05:33:57.075Z,100.00
2022-11-20T05:36:23.937Z,100.00
2022-11-20T05:38:51.318Z,100.00
2022-11-20T05:41:21.242Z,100.00
2022-11-20T05:43:49.156Z,100.00
2022-11-20T05:46:17.635Z,100.00
2022-11-20T05:48:44.976Z,100.00
2022-11-20T05:51:14.830Z,100.00
2022-11-20T05:53:47.885Z,100.00
2022-11-20T05:56:18.339Z,100.00
2022-11-20T05:58:46.028Z,100.00
2022-11-20T06:01:24.893Z,100.00
2022-11-20T06:03:52.331Z,100.00
2022-11-20T06:06:19.798Z,100.00
2022-11-20T06:08:46.807Z,100.00
2022-11-20T06:11:15.482Z,100.00
2022-11-20T06:13:43.001Z,100.00
2022-11-20T06:16:11.218Z,100.00
2022-11-20T06:18:38.461Z,100.00
2022-11-20T06:21:06.669Z,100.00
2022-11-20T06:23:35.034Z,100.00
2022-11-20T06:26:07.721Z,100.00
2022-11-20T06:28:34.671Z,100.00
2022-11-20T06:31:01.248Z,100.00
2022-11-20T06:33:28.921Z,100.00
2022-11-20T06:36:02.616Z,100.00
2022-11-20T06:38:32.628Z,100.00
2022-11-20T06:40:59.255Z,100.00
2022-11-20T06:43:26.784Z,100.00
2022-11-20T06:45:57.874Z,100.00
2022-11-20T06:48:26.324Z,100.00
2022-11-20T06:50:52.852Z,100.00
2022-11-20T06:53:19.807Z,100.00
2022-11-20T06:55:47.946Z,100.00
2022-11-20T06:58:15.963Z,100.00
2022-11-20T07:00:42.683Z,100.00
2022-11-20T07:03:11.575Z,100.00
2022-11-20T07:05:39.550Z,100.00
2022-11-20T07:08:06.284Z,100.00
2022-11-20T07:10:34.300Z,100.00
2022-11-20T07:13:00.915Z,100.00
2022-11-20T07:15:27.529Z,100.00
2022-11-20T07:17:54.119Z,100.00
2022-11-20T07:20:20.943Z,100.00
2022-11-20T07:22:47.570Z,100.00
2022-11-20T07:25:14.097Z,100.00
2022-11-20T07:27:40.658Z,100.00
2022-11-20T07:30:07.896Z,100.00
2022-11-20T07:32:34.443Z,100.00
2022-11-20T07:35:01.031Z,100.00
2022-11-20T07:37:27.596Z,100.00
2022-11-20T07:39:54.204Z,98.85
2022-11-20T07:42:20.768Z,97.28
2022-11-20T07:44:47.345Z,95.20
2022-11-20T07:47:13.877Z,94.96
2022-11-20T07:49:40.445Z,94.52
2022-11-20T07:52:07.015Z,94.52
2022-11-20T07:54:33.569Z,96.58
2022-11-20T07:57:00.114Z,96.44
2022-11-20T07:59:26.755Z,95.84
2022-11-20T08:01:53.319Z,95.79
2022-11-20T08:04:19.897Z,94.18
2022-11-20T08:06:46.496Z,93.04
2022-11-20T08:09:13.080Z,93.21
2022-11-20T08:11:57.924Z,93.41
2022-11-20T08:14:24.537Z,92.75
2022-11-20T08:16:51.113Z,93.15
2022-11-20T08:19:20.048Z,93.42
2022-11-20T08:21:47.278Z,93.46
2022-11-20T08:24:13.864Z,94.98
2022-11-20T08:26:41.729Z,96.12
2022-11-20T08:29:08.553Z,94.77
2022-11-20T08:31:35.685Z,94.17
2022-11-20T08:34:07.740Z,93.57
2022-11-20T08:36:36.126Z,93.05
2022-11-20T08:39:03.652Z,92.61
2022-11-20T08:41:33.975Z,91.96
2022-11-20T08:44:02.925Z,91.07
2022-11-20T08:46:42.685Z,89.03
2022-11-20T08:49:11.867Z,87.81
2022-11-20T08:51:39.372Z,88.61
2022-11-20T08:54:06.698Z,88.46
2022-11-20T08:56:33.492Z,88.14
2022-11-20T08:59:22.932Z,85.40
2022-11-20T09:01:49.377Z,85.25
2022-11-20T09:04:16.501Z,85.58
2022-11-20T09:06:43.087Z,83.98
2022-11-20T09:09:09.684Z,82.73
2022-11-20T09:11:37.118Z,82.61
2022-11-20T09:14:03.915Z,81.97
2022-11-20T09:16:30.517Z,82.30
2022-11-20T09:21:43.591Z,80.13
2022-11-20T09:24:10.352Z,81.54
2022-11-20T09:26:36.946Z,81.42
2022-11-20T09:29:03.684Z,81.58
2022-11-20T09:31:30.307Z,82.18
2022-11-20T09:33:56.890Z,82.71
2022-11-20T09:36:23.728Z,81.62
2022-11-20T09:38:50.303Z,80.51
2022-11-20T09:41:35.331Z,80.00
2022-11-20T09:44:28.619Z,80.19
2022-11-20T09:47:01.008Z,80.21
2022-11-20T09:49:55.238Z,78.96
2022-11-20T09:52:59.081Z,77.38
2022-11-20T09:55:26.752Z,76.06
2022-11-20T09:57:53.591Z,76.33
2022-11-20T10:00:22.402Z,74.75
2022-11-20T10:03:15.675Z,75.87
2022-11-20T10:05:47.351Z,76.10
2022-11-20T10:08:30.337Z,75.57
2022-11-20T10:11:02.895Z,74.37
2022-11-20T10:14:00.511Z,74.75
2022-11-20T10:16:42.313Z,75.06
2022-11-20T10:19:15.003Z,76.41
2022-11-20T10:22:18.929Z,76.48
2022-11-20T10:24:45.504Z,73.27
2022-11-20T10:27:31.061Z,69.46
2022-11-20T10:30:26.234Z,65.57
2022-11-20T10:33:06.498Z,66.01
2022-11-20T10:35:55.823Z,65.59
2022-11-20T10:38:34.725Z,65.16
2022-11-20T10:41:22.630Z,66.90
2022-11-20T10:43:55.051Z,65.89
2022-11-20T10:46:23.662Z,64.79
2022-11-20T10:48:51.141Z,64.43
2022-11-20T10:51:36.482Z,63.20
2022-11-20T10:54:13.932Z,63.07
2022-11-20T10:56:50.228Z,62.53
2022-11-20T10:59:23.417Z,61.94
2022-11-20T11:01:50.324Z,61.58
2022-11-20T11:04:36.882Z,61.91
2022-11-20T11:07:13.483Z,61.06
2022-11-20T11:09:44.736Z,61.55
2022-11-20T11:12:11.881Z,61.98
2022-11-20T11:14:49.839Z,63.12
2022-11-20T11:17:28.344Z,63.80
2022-11-20T11:20:02.374Z,64.46
2022-11-20T11:22:34.811Z,64.26
2022-11-20T11:25:02.112Z,63.37
2022-11-20T11:27:28.780Z,64.70
2022-11-20T11:30:15.734Z,63.23
2022-11-20T11:32:42.597Z,59.89
2022-11-20T11:35:24.361Z,59.42
2022-11-20T11:37:52.322Z,59.16
2022-11-20T11:40:24.724Z,58.24
2022-11-20T11:42:57.448Z,56.99
2022-11-20T11:45:24.838Z,56.32
2022-11-20T11:47:53.639Z,54.87
2022-11-20T11:50:23.921Z,53.26
2022-11-20T11:52:50.394Z,53.04
2022-11-20T11:55:25.946Z,53.25
2022-11-20T11:58:05.529Z,53.07
2022-11-20T12:00:35.456Z,54.12
2022-11-20T12:03:15.317Z,54.19
2022-11-20T12:05:46.307Z,54.94
2022-11-20T12:08:27.842Z,54.75
2022-11-20T12:11:04.663Z,56.04
2022-11-20T12:13:52.186Z,55.34
2022-11-20T12:16:21.175Z,56.45
2022-11-20T12:18:53.462Z,55.97
2022-11-20T12:21:35.315Z,56.49
2022-11-20T12:24:39.625Z,56.67
2022-11-20T12:27:06.144Z,56.04
2022-11-20T12:30:04.945Z,56.82
2022-11-20T12:32:54.074Z,57.84
2022-11-20T12:35:33.227Z,59.19
2022-11-20T12:38:37.559Z,60.51
2022-11-20T12:41:03.965Z,61.87
2022-11-20T12:43:56.167Z,62.46
2022-11-20T12:46:47.250Z,63.22
2022-11-20T12:49:30.413Z,63.80
2022-11-20T12:52:15.466Z,63.53
2022-11-20T12:55:14.040Z,63.22
2022-11-20T12:57:51.039Z,62.46
2022-11-20T13:00:22.987Z,62.01
2022-11-20T13:03:08.995Z,63.06
2022-11-20T13:05:35.625Z,63.51
2022-11-20T13:08:03.702Z,64.07
2022-11-20T13:10:50.756Z,64.82
2022-11-20T13:13:35.845Z,64.71
2022-11-20T13:16:17.860Z,65.25
2022-11-20T13:18:46.243Z,65.79
2022-11-20T13:21:21.337Z,65.95
2022-11-20T13:23:48.444Z,66.33
2022-11-20T13:26:21.803Z,66.96
2022-11-20T13:29:00.607Z,67.26
2022-11-20T13:31:35.931Z,67.31
2022-11-20T13:34:06.864Z,67.67
2022-11-20T13:36:35.983Z,69.00
2022-11-20T13:39:02.981Z,69.01
2022-11-20T13:41:38.787Z,69.46
2022-11-20T13:44:36.254Z,69.42
2022-11-20T13:47:03.000Z,70.00
2022-11-20T13:49:45.236Z,71.01
2022-11-20T13:52:49.297Z,72.34
2022-11-20T13:55:32.213Z,74.32
2022-11-20T13:58:23.590Z,75.73
2022-11-20T14:00:59.606Z,76.29
2022-11-20T14:03:51.330Z,77.04
2022-11-20T14:06:32.582Z,79.89
2022-11-20T14:09:00.379Z,81.85
2022-11-20T14:11:31.745Z,83.28
2022-11-20T14:14:04.088Z,84.38
2022-11-20T14:16:37.000Z,85.92
2022-11-20T14:19:21.656Z,87.62
2022-11-20T14:21:55.330Z,90.49
2022-11-20T14:24:24.355Z,95.11
2022-11-20T14:26:52.939Z,99.20
2022-11-20T14:29:29.509Z,100.00
2022-11-20T14:31:57.870Z,100.00
2022-11-20T14:34:27.523Z,100.00
2022-11-20T14:36:59.903Z,100.00
2022-11-20T14:39:54.054Z,100.00
2022-11-20T14:42:24.977Z,100.00
2022-11-20T14:44:53.624Z,100.00
2022-11-20T14:47:23.432Z,100.00
2022-11-20T14:49:52.463Z,100.00
2022-11-20T14:52:24.310Z,100.00
2022-11-20T14:54:53.471Z,100.00
2022-11-20T14:57:31.605Z,100.00
2022-11-20T15:00:24.891Z,100.00
2022-11-20T15:02:52.649Z,100.00
2022-11-20T15:05:24.994Z,100.00
2022-11-20T15:08:07.395Z,100.00
2022-11-20T15:10:34.089Z,100.00
2022-11-20T15:13:07.148Z,100.00
2022-11-20T15:15:45.223Z,100.00
2022-11-20T15:18:17.180Z,100.00
2022-11-20T15:20:44.772Z,100.00
2022-11-20T15:23:14.258Z,100.00
2022-11-20T15:25:41.778Z,100.00
2022-11-20T15:28:22.294Z,100.00
2022-11-20T15:30:50.755Z,100.00
2022-11-20T15:33:18.576Z,100.00
2022-11-20T15:35:45.535Z,100.00
2022-11-20T15:38:12.163Z,100.00
2022-11-20T15:40:38.864Z,100.00
2022-11-20T15:43:12.552Z,100.00
2022-11-20T15:45:44.364Z,100.00
2022-11-20T15:48:20.689Z,100.00
2022-11-20T15:51:12.300Z,100.00
2022-11-20T15:53:40.029Z,100.00
2022-11-20T15:56:07.109Z,100.00
2022-11-20T15:58:33.644Z,100.00
2022-11-20T16:01:00.305Z,100.00
2022-11-20T16:03:26.961Z,100.00
2022-11-20T16:05:53.510Z,100.00
2022-11-20T16:08:20.108Z,100.00
2022-11-20T16:10:46.712Z,100.00
2022-11-20T16:13:34.323Z,100.00
2022-11-20T16:16:06.002Z,100.00
2022-11-20T16:18:33.545Z,100.00
2022-11-20T16:21:00.332Z,100.00
2022-11-20T16:23:27.004Z,100.00
2022-11-20T16:25:53.796Z,100.00
2022-11-20T16:28:20.733Z,100.00
2022-11-20T16:30:47.425Z,100.00
2022-11-20T16:33:16.908Z,100.00
2022-11-20T16:35:43.950Z,100.00
2022-11-20T16:38:10.566Z,100.00
2022-11-20T16:40:37.583Z,100.00
2022-11-20T16:43:14.946Z,100.00
2022-11-20T16:45:43.723Z,100.00
2022-11-20T16:48:16.478Z,100.00
2022-11-20T16:50:48.891Z,100.00
2022-11-20T16:53:15.834Z,100.00
2022-11-20T16:55:42.788Z,100.00
2022-11-20T16:58:09.626Z,100.00
2022-11-20T17:00:38.366Z,100.00
2022-11-20T17:03:06.019Z,100.00
2022-11-20T17:05:33.529Z,100.00
2022-11-20T17:08:01.115Z,100.00
2022-11-20T17:10:27.829Z,100.00
2022-11-20T17:12:54.538Z,100.00
2022-11-20T17:15:21.251Z,100.00
2022-11-20T17:17:48.190Z,100.00
2022-11-20T17:20:14.914Z,100.00
2022-11-20T17:22:41.576Z,100.00
2022-11-20T17:25:08.559Z,100.00
2022-11-20T17:27:35.396Z,100.00
2022-11-20T17:30:02.329Z,100.00
2022-11-20T17:32:29.065Z,100.00
2022-11-20T17:34:56.734Z,100.00
2022-11-20T17:37:23.393Z,100.00
2022-11-20T17:39:50.392Z,100.00
2022-11-20T17:42:37.144Z,100.00
2022-11-20T17:45:04.842Z,100.00
2022-11-20T17:47:31.568Z,100.00
2022-11-20T17:49:58.607Z,100.00
2022-11-20T17:52:25.275Z,100.00
2022-11-20T17:54:56.316Z,100.00
2022-11-20T17:57:43.072Z,100.00
2022-11-20T18:00:13.247Z,100.00
2022-11-20T18:02:40.282Z,100.00
2022-11-20T18:05:07.690Z,100.00
2022-11-20T18:07:40.147Z,100.00
2022-11-20T18:10:09.368Z,100.00
2022-11-20T18:12:36.255Z,100.00
2022-11-20T18:15:03.251Z,100.00
2022-11-20T18:17:29.926Z,100.00
2022-11-20T18:20:21.620Z,100.00
2022-11-20T18:22:43.343Z,100.00
2022-11-20T18:25:10.598Z,100.00
2022-11-20T18:27:39.122Z,100.00
2022-11-20T18:30:06.386Z,100.00
2022-11-20T18:32:35.358Z,100.00
2022-11-20T18:35:02.189Z,100.00
2022-11-20T18:37:28.868Z,100.00
2022-11-20T18:39:56.532Z,100.00
2022-11-20T18:42:41.592Z,100.00
2022-11-20T18:45:08.511Z,100.00
2022-11-20T18:47:37.953Z,100.00
2022-11-20T18:50:06.361Z,100.00
2022-11-20T18:52:38.161Z,100.00
2022-11-20T18:55:06.069Z,100.00
2022-11-20T18:57:33.116Z,100.00
2022-11-20T19:00:06.516Z,100.00
2022-11-20T19:02:40.900Z,100.00
2022-11-20T19:05:09.824Z,100.00
2022-11-20T19:07:36.597Z,100.00
2022-11-20T19:10:04.548Z,100.00
2022-11-20T19:12:31.727Z,100.00
2022-11-20T19:14:58.620Z,100.00
2022-11-20T19:17:25.393Z,100.00
2022-11-20T19:19:54.834Z,100.00
2022-11-20T19:22:22.004Z,100.00
2022-11-20T19:24:48.601Z,100.00
2022-11-20T19:27:15.286Z,100.00
2022-11-20T19:29:42.211Z,100.00
2022-11-20T19:32:08.972Z,100.00
2022-11-20T19:34:35.548Z,100.00
2022-11-20T19:37:02.357Z,100.00
2022-11-20T19:39:29.099Z,100.00
2022-11-20T19:41:55.910Z,100.00
2022-11-20T19:44:22.595Z,100.00
2022-11-20T19:46:50.904Z,100.00
2022-11-20T19:49:17.543Z,100.00
2022-11-20T19:51:47.584Z,100.00
2022-11-20T19:54:14.368Z,100.00
2022-11-20T19:56:41.068Z,100.00
2022-11-20T19:59:07.690Z,100.00
2022-11-20T20:01:35.590Z,100.00
2022-11-20T20:04:05.086Z,100.00
2022-11-20T20:06:34.200Z,100.00
2022-11-20T20:09:06.912Z,100.00
2022-11-20T20:11:35.338Z,100.00
2022-11-20T20:14:03.804Z,100.00
2022-11-20T20:16:30.528Z,100.00
2022-11-20T20:18:59.296Z,100.00
2022-11-20T20:21:25.930Z,100.00
2022-11-20T20:23:55.578Z,100.00
2022-11-20T20:26:24.165Z,100.00
2022-11-20T20:28:50.914Z,100.00
2022-11-20T20:31:20.427Z,100.00
2022-11-20T20:33:47.328Z,100.00
2022-11-20T20:36:15.870Z,100.00
2022-11-20T20:38:43.415Z,100.00
2022-11-20T20:41:10.336Z,100.00
2022-11-20T20:43:56.128Z,100.00
2022-11-20T20:46:23.145Z,100.00
2022-11-20T20:48:54.129Z,100.00
2022-11-20T20:51:21.557Z,100.00
2022-11-20T20:53:48.112Z,100.00
2022-11-20T20:56:14.926Z,100.00
2022-11-20T20:58:41.704Z,100.00
2022-11-20T21:01:11.293Z,100.00
2022-11-20T21:03:37.981Z,100.00
2022-11-20T21:06:06.582Z,100.00
2022-11-20T21:08:33.467Z,100.00
2022-11-20T21:11:11.978Z,100.00
2022-11-20T21:13:40.409Z,100.00
2022-11-20T21:16:07.533Z,100.00
2022-11-20T21:18:34.248Z,100.00
2022-11-20T21:21:22.975Z,100.00
2022-11-20T21:23:49.585Z,100.00
2022-11-20T21:26:17.200Z,100.00
2022-11-20T21:28:43.877Z,100.00
2022-11-20T21:31:16.389Z,100.00
2022-11-20T21:33:45.671Z,100.00
2022-11-20T21:36:14.996Z,100.00
2022-11-20T21:38:41.631Z,100.00
2022-11-20T21:41:10.133Z,100.00
2022-11-20T21:43:36.956Z,100.00
2022-11-20T21:46:12.988Z,100.00
2022-11-20T21:48:41.240Z,100.00
2022-11-20T21:51:10.489Z,100.00
2022-11-20T21:53:37.310Z,100.00
2022-11-20T21:56:05.301Z,100.00
2022-11-20T21:58:31.974Z,100.00
2022-11-20T22:00:58.586Z,100.00
2022-11-20T22:03:25.244Z,100.00
2022-11-20T22:05:58.779Z,100.00
2022-11-20T22:08:25.640Z,100.00
2022-11-20T22:11:00.231Z,100.00
2022-11-20T22:13:46.495Z,100.00
2022-11-20T22:16:14.069Z,100.00
2022-11-20T22:18:48.560Z,100.00
2022-11-20T22:21:16.286Z,100.00
2022-11-20T22:23:43.048Z,100.00
2022-11-20T22:26:12.074Z,100.00
2022-11-20T22:28:39.633Z,100.00
2022-11-20T22:31:08.597Z,100.00
2022-11-20T22:33:36.869Z,100.00
2022-11-20T22:36:13.938Z,100.00
2022-11-20T22:38:41.306Z,100.00
2022-11-20T22:41:10.869Z,100.00
2022-11-20T22:43:38.659Z,100.00
2022-11-20T22:46:14.027Z,100.00
2022-11-20T22:48:44.081Z,100.00
2022-11-20T22:51:14.156Z,100.00
2022-11-20T22:53:42.134Z,100.00
2022-11-20T22:56:10.365Z,100.00
2022-11-20T22:58:38.126Z,100.00
2022-11-20T23:01:12.224Z,100.00
2022-11-20T23:03:40.469Z,100.00
2022-11-20T23:06:07.909Z,100.00
2022-11-20T23:08:34.617Z,100.00
2022-11-20T23:11:06.598Z,100.00
2022-11-20T23:13:33.672Z,100.00
2022-11-20T23:16:06.274Z,100.00
2022-11-20T23:18:33.859Z,100.00
2022-11-20T23:21:12.141Z,100.00
2022-11-20T23:23:39.230Z,100.00
2022-11-20T23:26:08.797Z,100.00
2022-11-20T23:28:35.872Z,100.00
2022-11-20T23:31:03.075Z,100.00
2022-11-20T23:33:29.788Z,100.00
2022-11-20T23:35:56.753Z,100.00
2022-11-20T23:38:23.464Z,100.00
2022-11-20T23:40:51.269Z,100.00
2022-11-20T23:43:19.544Z,100.00
2022-11-20T23:45:48.837Z,100.00
2022-11-20T23:48:16.185Z,100.00
2022-11-20T23:50:43.996Z,100.00
2022-11-20T23:53:11.869Z,100.00
2022-11-20T23:55:38.574Z,100.00
2022-11-20T23:58:05.451Z,100.00
